createdAt,value
2018-07-03T00:00:19.713Z,13.3
2018-07-03T00:01:39.570Z,13.3
2018-07-03T00:03:01.956Z,13.3
2018-07-03T00:04:24.333Z,13.3
2018-07-03T00:05:51.776Z,13.3
2018-07-03T00:07:14.179Z,13.1
2018-07-03T00:08:36.570Z,13.1
2018-07-03T00:09:56.482Z,13
2018-07-03T00:11:16.335Z,12.9
2018-07-03T00:12:43.753Z,12.9
2018-07-03T00:14:06.104Z,12.8
2018-07-03T00:15:38.612Z,12.9
2018-07-03T00:17:03.506Z,12.9
2018-07-03T00:18:23.341Z,12.9
2018-07-03T00:19:45.725Z,12.7
2018-07-03T00:21:13.189Z,12.6
2018-07-03T00:22:35.584Z,12.7
2018-07-03T00:24:00.513Z,12.8
2018-07-03T00:25:25.429Z,12.8
2018-07-03T00:26:47.779Z,12.8
2018-07-03T00:28:07.649Z,12.7
2018-07-03T00:29:29.992Z,12.7
2018-07-03T00:30:49.884Z,12.7
2018-07-03T00:32:12.240Z,12.7
2018-07-03T00:33:32.095Z,12.7
2018-07-03T00:34:52.001Z,12.6
2018-07-03T00:36:11.850Z,12.6
2018-07-03T00:37:34.204Z,12.6
2018-07-03T00:38:54.024Z,12.6
2018-07-03T00:40:16.414Z,12.6
2018-07-03T00:41:36.266Z,12.6
2018-07-03T00:42:56.150Z,12.5
2018-07-03T00:44:21.041Z,12.6
2018-07-03T00:45:40.899Z,12.6
2018-07-03T00:47:10.884Z,12.6
2018-07-03T00:48:40.885Z,12.6
2018-07-03T00:50:03.289Z,12.6
2018-07-03T00:51:25.641Z,12.6
2018-07-03T00:52:45.467Z,12.6
2018-07-03T00:54:07.831Z,12.6
2018-07-03T00:55:27.674Z,12.7
2018-07-03T00:56:47.502Z,12.7
2018-07-03T00:58:07.336Z,12.7
2018-07-03T00:59:27.178Z,12.6
2018-07-03T01:00:47.014Z,12.6
2018-07-03T01:02:09.377Z,12.5
2018-07-03T01:03:29.198Z,12.5
2018-07-03T01:04:59.155Z,12.5
2018-07-03T01:06:21.536Z,12.5
2018-07-03T01:07:41.388Z,12.5
2018-07-03T01:09:06.327Z,12.5
2018-07-03T01:10:28.726Z,12.5
2018-07-03T01:11:58.696Z,12.5
2018-07-03T01:13:21.078Z,12.5
2018-07-03T01:14:45.979Z,12.4
2018-07-03T01:16:05.797Z,12.4
2018-07-03T01:17:28.213Z,12.5
2018-07-03T01:19:00.699Z,12.4
2018-07-03T01:20:20.522Z,12.4
2018-07-03T01:21:45.407Z,12.4
2018-07-03T01:23:05.237Z,12.4
2018-07-03T01:24:35.198Z,12.3
2018-07-03T01:26:00.160Z,12.4
2018-07-03T01:27:19.998Z,12.4
2018-07-03T01:28:42.380Z,12.3
2018-07-03T01:30:02.246Z,12.4
2018-07-03T01:31:27.180Z,12.4
2018-07-03T01:32:49.557Z,12.3
2018-07-03T01:34:16.978Z,12.2
2018-07-03T01:35:36.830Z,12.2
2018-07-03T01:36:56.699Z,12.2
2018-07-03T01:38:16.585Z,12.3
2018-07-03T01:39:36.465Z,12.2
2018-07-03T01:41:01.376Z,12.2
2018-07-03T01:42:28.784Z,12.2
2018-07-03T01:43:51.164Z,12.2
2018-07-03T01:45:11.053Z,12.2
2018-07-03T01:46:30.919Z,12.2
2018-07-03T01:47:50.806Z,12.2
2018-07-03T01:49:10.632Z,12.2
2018-07-03T01:50:30.531Z,12.2
2018-07-03T01:51:50.341Z,12.2
2018-07-03T01:53:10.156Z,12.1
2018-07-03T01:54:32.552Z,12.2
2018-07-03T01:55:57.445Z,12.2
2018-07-03T01:57:22.337Z,12.2
2018-07-03T01:58:49.795Z,12.2
2018-07-03T02:00:09.622Z,12.2
2018-07-03T02:01:34.501Z,12.2
2018-07-03T02:02:54.315Z,12.1
2018-07-03T02:04:14.190Z,12.1
2018-07-03T02:05:36.568Z,12.1
2018-07-03T02:06:56.478Z,11.8
2018-07-03T02:08:16.372Z,12
2018-07-03T02:09:48.857Z,11.5
2018-07-03T02:11:16.338Z,11.4
2018-07-03T02:12:36.237Z,11.4
2018-07-03T02:13:56.082Z,11.6
2018-07-03T02:15:18.434Z,11.5
2018-07-03T02:16:38.332Z,11.7
2018-07-03T02:18:08.296Z,11.7
2018-07-03T02:19:28.122Z,11.7
2018-07-03T02:20:47.942Z,11.7
2018-07-03T02:22:07.762Z,11.7
2018-07-03T02:23:27.585Z,11.1
2018-07-03T02:24:52.516Z,11.1
2018-07-03T02:26:19.952Z,11.1
2018-07-03T02:27:39.780Z,11
2018-07-03T02:28:59.602Z,10.9
2018-07-03T02:30:19.454Z,10.9
2018-07-03T02:31:39.333Z,10.8
2018-07-03T02:33:01.741Z,10.9
2018-07-03T02:34:24.093Z,10.9
2018-07-03T02:35:43.971Z,10.9
2018-07-03T02:37:06.354Z,10.8
2018-07-03T02:38:31.254Z,10.9
2018-07-03T02:39:51.157Z,10.9
2018-07-03T02:41:11.007Z,10.9
2018-07-03T02:42:35.948Z,10.8
2018-07-03T02:43:55.849Z,10.8
2018-07-03T02:45:20.763Z,10.8
2018-07-03T02:46:40.609Z,10.8
2018-07-03T02:48:08.090Z,10.7
2018-07-03T02:49:30.435Z,10.7
2018-07-03T02:50:55.375Z,10.7
2018-07-03T02:52:15.250Z,11.2
2018-07-03T02:53:35.140Z,11.3
2018-07-03T02:54:57.497Z,11.6
2018-07-03T02:56:22.415Z,11.7
2018-07-03T02:57:44.786Z,11.7
2018-07-03T02:59:07.416Z,11.9
2018-07-03T03:00:29.786Z,11.8
2018-07-03T03:01:54.721Z,11.6
2018-07-03T03:03:14.542Z,11.4
2018-07-03T03:04:47.027Z,11.9
2018-07-03T03:06:06.861Z,10.1
2018-07-03T03:07:26.703Z,11
2018-07-03T03:08:54.139Z,10.9
2018-07-03T03:10:13.983Z,11
2018-07-03T03:11:36.392Z,10.4
2018-07-03T03:12:56.289Z,10.7
2018-07-03T03:14:21.245Z,10.5
2018-07-03T03:15:41.171Z,10.6
2018-07-03T03:17:01.028Z,10.6
2018-07-03T03:18:25.943Z,10.7
2018-07-03T03:19:48.346Z,10.7
2018-07-03T03:21:08.221Z,10.7
2018-07-03T03:22:28.164Z,10.7
2018-07-03T03:23:53.065Z,10.6
2018-07-03T03:25:20.510Z,10.6
2018-07-03T03:26:40.335Z,10.5
2018-07-03T03:28:00.205Z,10.9
2018-07-03T03:29:20.093Z,10.8
2018-07-03T03:30:39.912Z,10.8
2018-07-03T03:31:59.739Z,10.8
2018-07-03T03:33:19.565Z,10.5
2018-07-03T03:34:44.481Z,10.7
2018-07-03T03:36:04.302Z,10.5
2018-07-03T03:37:31.723Z,10.5
2018-07-03T03:38:51.546Z,10.4
2018-07-03T03:40:13.875Z,9.4
2018-07-03T03:41:33.692Z,10.6
2018-07-03T03:42:53.514Z,10.2
2018-07-03T03:44:13.375Z,10.3
2018-07-03T03:45:38.270Z,10.4
2018-07-03T03:47:05.731Z,10.4
2018-07-03T03:48:25.592Z,10.6
2018-07-03T03:49:45.451Z,10.7
2018-07-03T03:51:12.874Z,10.2
2018-07-03T03:52:32.719Z,9.8
2018-07-03T03:53:52.572Z,9.7
2018-07-03T03:55:17.524Z,10.1
2018-07-03T03:56:39.873Z,10.9
2018-07-03T03:57:59.712Z,11.3
2018-07-03T03:59:22.072Z,11.1
2018-07-03T04:00:41.890Z,13.5
2018-07-03T04:02:04.280Z,13.5
2018-07-03T04:03:29.161Z,13.4
2018-07-03T04:04:48.986Z,13.4
2018-07-03T04:06:11.364Z,11.9
2018-07-03T04:07:31.209Z,10
2018-07-03T04:08:53.624Z,13
2018-07-03T04:10:13.453Z,12.1
2018-07-03T04:11:35.831Z,13.1
2018-07-03T04:13:00.754Z,11.9
2018-07-03T04:14:30.769Z,11.3
2018-07-03T04:15:58.191Z,11.6
2018-07-03T04:17:20.575Z,11.4
2018-07-03T04:18:40.429Z,11.3
2018-07-03T04:20:05.337Z,11.5
2018-07-03T04:21:25.168Z,11.5
2018-07-03T04:22:47.517Z,11.5
2018-07-03T04:24:14.943Z,11.4
2018-07-03T04:25:34.780Z,11.4
2018-07-03T04:26:54.601Z,11.4
2018-07-03T04:28:14.481Z,11.5
2018-07-03T04:29:34.328Z,11.5
2018-07-03T04:31:01.749Z,11.6
2018-07-03T04:32:21.577Z,11.5
2018-07-03T04:33:41.417Z,11.4
2018-07-03T04:35:01.263Z,11.5
2018-07-03T04:36:21.099Z,11.7
2018-07-03T04:37:40.952Z,11.9
2018-07-03T04:39:03.340Z,11.9
2018-07-03T04:40:23.158Z,12
2018-07-03T04:41:45.554Z,12
2018-07-03T04:43:05.401Z,12.1
2018-07-03T04:44:30.362Z,12.1
2018-07-03T04:45:52.722Z,11.9
2018-07-03T04:47:17.611Z,11.9
2018-07-03T04:48:37.456Z,11.8
2018-07-03T04:50:04.868Z,12
2018-07-03T04:51:24.749Z,12
2018-07-03T04:52:44.576Z,12.1
2018-07-03T04:54:06.929Z,12.2
2018-07-03T04:55:26.814Z,12.5
2018-07-03T04:56:46.676Z,12.4
2018-07-03T04:58:09.043Z,12.5
2018-07-03T04:59:28.871Z,12.4
2018-07-03T05:00:48.700Z,12.3
2018-07-03T05:02:08.521Z,12.4
2018-07-03T05:03:30.895Z,12.4
2018-07-03T05:04:55.859Z,12.3
2018-07-03T05:06:15.755Z,12.4
2018-07-03T05:07:38.111Z,12.5
2018-07-03T05:08:57.929Z,12.4
2018-07-03T05:10:17.772Z,12.5
2018-07-03T05:11:37.605Z,12.4
2018-07-03T05:13:00.034Z,12.2
2018-07-03T05:14:19.856Z,12.2
2018-07-03T05:15:39.718Z,12.3
2018-07-03T05:17:04.652Z,12.4
2018-07-03T05:18:27.036Z,12.3
2018-07-03T05:19:49.385Z,12.3
2018-07-03T05:21:09.217Z,12.2
2018-07-03T05:22:31.584Z,12.2
2018-07-03T05:23:51.397Z,12
2018-07-03T05:25:11.273Z,13.2
2018-07-03T05:26:33.618Z,13.3
2018-07-03T05:27:53.444Z,13.5
2018-07-03T05:29:20.873Z,13.4
2018-07-03T05:30:40.735Z,13.3
2018-07-03T05:32:00.623Z,13.3
2018-07-03T05:33:23.016Z,13.2
2018-07-03T05:34:42.876Z,12.3
2018-07-03T05:36:07.757Z,11.6
2018-07-03T05:37:32.683Z,11.8
2018-07-03T05:38:57.597Z,12.2
2018-07-03T05:40:17.493Z,12
2018-07-03T05:41:42.376Z,11.5
2018-07-03T05:43:02.198Z,11.6
2018-07-03T05:44:24.566Z,11.1
2018-07-03T05:45:49.449Z,11.4
2018-07-03T05:47:19.454Z,11.8
2018-07-03T05:48:39.275Z,12.4
2018-07-03T05:50:01.689Z,12.2
2018-07-03T05:51:26.638Z,12.1
2018-07-03T05:52:46.519Z,13
2018-07-03T05:54:06.389Z,12.6
2018-07-03T05:55:28.746Z,12.7
2018-07-03T05:56:48.590Z,13
2018-07-03T05:58:10.987Z,13.3
2018-07-03T05:59:33.447Z,13.3
2018-07-03T06:00:58.375Z,13.2
2018-07-03T06:02:20.789Z,13.3
2018-07-03T06:03:40.644Z,13
2018-07-03T06:05:02.996Z,13.2
2018-07-03T06:06:22.847Z,12.9
2018-07-03T06:07:42.694Z,12.6
2018-07-03T06:09:02.574Z,12.8
2018-07-03T06:10:27.469Z,12.8
2018-07-03T06:11:47.346Z,12.8
2018-07-03T06:13:35.062Z,12.7
2018-07-03T06:14:54.963Z,12.5
2018-07-03T06:16:19.892Z,12.5
2018-07-03T06:17:54.929Z,12.5
2018-07-03T06:19:14.792Z,12.6
2018-07-03T06:20:39.686Z,12.4
2018-07-03T06:21:59.537Z,12.7
2018-07-03T06:23:21.950Z,12.9
2018-07-03T06:24:44.325Z,12.2
2018-07-03T06:26:04.156Z,12.3
2018-07-03T06:27:31.578Z,12.7
2018-07-03T06:28:51.739Z,12.7
2018-07-03T06:30:11.677Z,12.7
2018-07-03T06:31:31.504Z,12.8
2018-07-03T06:32:51.367Z,12.8
2018-07-03T06:34:13.727Z,12.8
2018-07-03T06:35:33.584Z,12.9
2018-07-03T06:36:55.985Z,12.9
2018-07-03T06:38:18.336Z,12.9
2018-07-03T06:39:38.173Z,12.9
2018-07-03T06:40:58.051Z,12.9
2018-07-03T06:42:17.881Z,12.6
2018-07-03T06:43:37.698Z,12.8
2018-07-03T06:45:02.668Z,13
2018-07-03T06:46:25.490Z,12.9
2018-07-03T06:47:50.426Z,13.2
2018-07-03T06:49:10.277Z,12.9
2018-07-03T06:50:30.130Z,13.1
2018-07-03T06:52:00.134Z,13.6
2018-07-03T06:53:22.541Z,13.5
2018-07-03T06:54:44.972Z,13.6
2018-07-03T06:56:09.905Z,13.7
2018-07-03T06:57:29.817Z,13.8
2018-07-03T06:58:54.729Z,13.4
2018-07-03T07:00:17.083Z,14.2
2018-07-03T07:01:39.438Z,14.3
2018-07-03T07:02:59.294Z,14.5
2018-07-03T07:04:21.675Z,13.6
2018-07-03T07:05:56.684Z,14.4
2018-07-03T07:07:16.555Z,14.6
2018-07-03T07:08:51.790Z,14.4
2018-07-03T07:10:19.235Z,14.1
2018-07-03T07:11:39.103Z,14.6
2018-07-03T07:12:58.926Z,14.8
2018-07-03T07:14:18.798Z,14.6
2018-07-03T07:15:41.154Z,14.9
2018-07-03T07:17:06.104Z,15.7
2018-07-03T07:18:28.479Z,15.7
2018-07-03T07:19:53.376Z,14.6
2018-07-03T07:21:18.258Z,14.5
2018-07-03T07:22:38.148Z,14.8
2018-07-03T07:23:57.979Z,13.9
2018-07-03T07:25:20.357Z,15
2018-07-03T07:26:45.273Z,13.9
2018-07-03T07:28:05.114Z,14.8
2018-07-03T07:29:25.012Z,15.4
2018-07-03T07:30:47.368Z,14.8
2018-07-03T07:32:07.187Z,14
2018-07-03T07:33:27.003Z,14.8
2018-07-03T07:34:46.829Z,14.2
2018-07-03T07:36:14.292Z,15.2
2018-07-03T07:37:36.718Z,14.5
2018-07-03T07:38:56.543Z,14.4
2018-07-03T07:40:18.922Z,14.3
2018-07-03T07:41:46.337Z,13.8
2018-07-03T07:43:06.190Z,14.8
2018-07-03T07:44:26.039Z,15
2018-07-03T07:45:45.906Z,14.7
2018-07-03T07:47:05.740Z,15.2
2018-07-03T07:48:28.091Z,14.8
2018-07-03T07:50:00.562Z,15.9
2018-07-03T07:51:20.388Z,15.5
2018-07-03T07:52:40.279Z,15.4
2018-07-03T07:54:02.667Z,15.8
2018-07-03T07:55:32.598Z,15.1
2018-07-03T07:57:05.138Z,15
2018-07-03T07:58:25.035Z,14.8
2018-07-03T07:59:47.418Z,14.6
2018-07-03T08:01:09.840Z,14.9
2018-07-03T08:02:32.191Z,15.3
2018-07-03T08:03:52.057Z,15.6
2018-07-03T08:05:24.600Z,15.5
2018-07-03T08:06:47.061Z,15.3
2018-07-03T08:08:12.022Z,15.1
2018-07-03T08:09:31.906Z,15.1
2018-07-03T08:10:51.727Z,15.6
2018-07-03T08:12:14.078Z,15.3
2018-07-03T08:13:33.907Z,15
2018-07-03T08:14:53.742Z,15.2
2018-07-03T08:16:13.563Z,15.4
2018-07-03T08:17:33.403Z,15.3
2018-07-03T08:18:53.223Z,15.1
2018-07-03T08:20:13.046Z,15.2
2018-07-03T08:21:32.863Z,14.7
2018-07-03T08:22:57.753Z,15
2018-07-03T08:24:35.337Z,15.4
2018-07-03T08:25:55.175Z,15.1
2018-07-03T08:27:15.054Z,14.7
2018-07-03T08:28:39.963Z,15.1
2018-07-03T08:30:02.357Z,15.5
2018-07-03T08:31:22.176Z,15.2
2018-07-03T08:32:44.561Z,15.2
2018-07-03T08:34:09.521Z,15.3
2018-07-03T08:35:39.525Z,15.4
2018-07-03T08:36:59.371Z,15.3
2018-07-03T08:38:19.219Z,15.3
2018-07-03T08:39:51.771Z,15.3
2018-07-03T08:41:11.640Z,15.7
2018-07-03T08:42:31.457Z,16.1
2018-07-03T08:43:51.277Z,16
2018-07-03T08:45:13.689Z,15.5
2018-07-03T08:46:33.518Z,15.5
2018-07-03T08:47:53.347Z,14.4
2018-07-03T08:49:13.172Z,15.4
2018-07-03T08:50:32.998Z,16.2
2018-07-03T08:51:52.863Z,17.4
2018-07-03T08:53:12.767Z,16.4
2018-07-03T08:54:40.215Z,17.1
2018-07-03T08:56:00.083Z,16.9
2018-07-03T08:57:24.995Z,17
2018-07-03T08:58:44.900Z,17
2018-07-03T09:00:07.251Z,16.9
2018-07-03T09:01:32.137Z,17
2018-07-03T09:02:54.559Z,17.2
2018-07-03T09:04:21.999Z,16.8
2018-07-03T09:05:41.819Z,17.1
2018-07-03T09:07:01.689Z,17.1
2018-07-03T09:08:26.563Z,17.1
2018-07-03T09:09:46.392Z,17.1
2018-07-03T09:11:08.745Z,17.2
2018-07-03T09:12:31.111Z,16.8
2018-07-03T09:13:50.937Z,16.1
2018-07-03T09:15:15.817Z,16.7
2018-07-03T09:16:40.718Z,16.7
2018-07-03T09:18:00.600Z,16.2
2018-07-03T09:19:20.494Z,15.8
2018-07-03T09:20:50.468Z,16.1
2018-07-03T09:22:10.293Z,16
2018-07-03T09:23:37.785Z,16.1
2018-07-03T09:25:00.221Z,16
2018-07-03T09:26:20.101Z,15.9
2018-07-03T09:27:57.651Z,15.9
2018-07-03T09:29:17.502Z,16
2018-07-03T09:30:39.934Z,16
2018-07-03T09:31:59.793Z,16
2018-07-03T09:33:19.655Z,16
2018-07-03T09:34:42.012Z,16
2018-07-03T09:36:01.827Z,16.3
2018-07-03T09:37:29.272Z,16.3
2018-07-03T09:38:49.149Z,16.5
2018-07-03T09:40:08.997Z,16.7
2018-07-03T09:41:36.401Z,16.7
2018-07-03T09:42:58.747Z,16.5
2018-07-03T09:44:21.160Z,17.1
2018-07-03T09:45:43.525Z,17
2018-07-03T09:47:03.352Z,16.7
2018-07-03T09:48:23.215Z,16.7
2018-07-03T09:49:43.032Z,16.7
2018-07-03T09:51:05.404Z,16.9
2018-07-03T09:52:25.238Z,16.8
2018-07-03T09:53:47.639Z,17.2
2018-07-03T09:55:10.040Z,17.4
2018-07-03T09:56:32.396Z,17.2
2018-07-03T09:57:52.275Z,17.2
2018-07-03T09:59:22.265Z,17.3
2018-07-03T10:00:44.689Z,17.3
2018-07-03T10:02:04.589Z,17.4
2018-07-03T10:03:29.498Z,17.4
2018-07-03T10:04:49.372Z,17.3
2018-07-03T10:06:09.222Z,17.4
2018-07-03T10:07:29.074Z,17.4
2018-07-03T10:08:48.925Z,17.4
2018-07-03T10:10:13.846Z,17.4
2018-07-03T10:11:36.197Z,17.4
2018-07-03T10:12:56.020Z,17.5
2018-07-03T10:14:20.904Z,17.4
2018-07-03T10:15:43.250Z,17.4
2018-07-03T10:17:03.142Z,17.5
2018-07-03T10:18:22.973Z,17.3
2018-07-03T10:19:42.828Z,17.4
2018-07-03T10:21:07.733Z,18.1
2018-07-03T10:22:27.652Z,18.4
2018-07-03T10:23:47.470Z,18.4
2018-07-03T10:25:07.291Z,18.3
2018-07-03T10:26:29.667Z,18.3
2018-07-03T10:27:57.116Z,18.2
2018-07-03T10:29:27.066Z,18.2
2018-07-03T10:30:49.456Z,18.1
2018-07-03T10:32:21.947Z,18.2
2018-07-03T10:33:49.378Z,18.2
2018-07-03T10:35:09.236Z,18.1
2018-07-03T10:36:34.144Z,18.1
2018-07-03T10:37:54.002Z,18.1
2018-07-03T10:39:13.848Z,18.1
2018-07-03T10:40:33.745Z,18.1
2018-07-03T10:41:58.690Z,18.1
2018-07-03T10:43:28.654Z,18.1
2018-07-03T10:44:48.474Z,18
2018-07-03T10:46:15.960Z,18
2018-07-03T10:47:38.354Z,18.1
2018-07-03T10:49:10.854Z,18.1
2018-07-03T10:50:35.745Z,18.1
2018-07-03T10:51:55.566Z,18
2018-07-03T10:53:15.423Z,18.2
2018-07-03T10:54:37.811Z,18.2
2018-07-03T10:56:00.161Z,18.2
2018-07-03T10:57:22.527Z,18.2
2018-07-03T10:58:42.370Z,18.2
2018-07-03T11:00:19.962Z,18.3
2018-07-03T11:01:39.844Z,18.2
2018-07-03T11:02:59.662Z,18.1
2018-07-03T11:04:19.528Z,18.2
2018-07-03T11:05:39.436Z,18.3
2018-07-03T11:07:04.366Z,18.4
2018-07-03T11:08:24.233Z,18.4
2018-07-03T11:09:46.593Z,18.4
2018-07-03T11:11:08.967Z,18.4
2018-07-03T11:12:28.850Z,18.4
2018-07-03T11:13:58.917Z,18.5
2018-07-03T11:15:23.903Z,18.5
2018-07-03T11:16:48.811Z,18.5
2018-07-03T11:18:11.223Z,18.5
2018-07-03T11:19:41.301Z,18.5
2018-07-03T11:21:03.703Z,18.5
2018-07-03T11:22:23.606Z,18.5
2018-07-03T11:23:43.454Z,18.5
2018-07-03T11:25:03.271Z,18.5
2018-07-03T11:26:25.677Z,18.5
2018-07-03T11:27:45.531Z,18.4
2018-07-03T11:29:07.889Z,18.3
2018-07-03T11:30:27.716Z,18
2018-07-03T11:31:50.067Z,17.4
2018-07-03T11:33:12.427Z,17.8
2018-07-03T11:34:34.813Z,17.7
2018-07-03T11:35:59.733Z,18.5
2018-07-03T11:37:19.604Z,18.4
2018-07-03T11:38:39.460Z,18.8
2018-07-03T11:39:59.320Z,19.1
2018-07-03T11:41:24.256Z,18.1
2018-07-03T11:42:46.611Z,17.8
2018-07-03T11:44:06.465Z,17.1
2018-07-03T11:45:26.337Z,17.3
2018-07-03T11:46:46.167Z,17.2
2018-07-03T11:48:08.545Z,18.5
2018-07-03T11:49:30.948Z,18.4
2018-07-03T11:50:50.770Z,18.4
2018-07-03T11:52:13.122Z,18.5
2018-07-03T11:53:35.537Z,18.4
2018-07-03T11:54:57.903Z,18.8
2018-07-03T11:56:25.355Z,19
2018-07-03T11:57:45.172Z,18.3
2018-07-03T11:59:10.061Z,18.6
2018-07-03T12:00:37.484Z,18.7
2018-07-03T12:01:57.316Z,18.1
2018-07-03T12:03:17.177Z,18.1
2018-07-03T12:04:39.531Z,19.1
2018-07-03T12:06:01.883Z,18.7
2018-07-03T12:07:21.713Z,18.7
2018-07-03T12:08:44.085Z,18.8
2018-07-03T12:10:09.008Z,19.4
2018-07-03T12:11:28.857Z,19.6
2018-07-03T12:12:48.753Z,19.9
2018-07-03T12:14:16.165Z,20.1
2018-07-03T12:15:35.983Z,20.5
2018-07-03T12:16:58.373Z,20.2
2018-07-03T12:18:20.794Z,20.2
2018-07-03T12:19:43.214Z,20.1
2018-07-03T12:21:03.186Z,21
2018-07-03T12:22:25.549Z,20.1
2018-07-03T12:23:50.442Z,20.8
2018-07-03T12:25:15.342Z,21
2018-07-03T12:26:42.750Z,21.8
2018-07-03T12:28:07.688Z,22
2018-07-03T12:29:27.537Z,21.7
2018-07-03T12:30:47.387Z,21.9
2018-07-03T12:32:17.357Z,22.2
2018-07-03T12:33:39.698Z,22.5
2018-07-03T12:34:59.525Z,22.9
2018-07-03T12:36:19.343Z,23.5
2018-07-03T12:37:39.174Z,23.4
2018-07-03T12:39:06.584Z,24
2018-07-03T12:40:26.408Z,24.1
2018-07-03T12:41:46.259Z,24.3
2018-07-03T12:43:08.636Z,24.4
2018-07-03T12:44:28.552Z,24.5
2018-07-03T12:45:53.457Z,24.5
2018-07-03T12:47:13.308Z,24.5
2018-07-03T12:48:35.695Z,24.2
2018-07-03T12:50:00.586Z,24.9
2018-07-03T12:51:20.414Z,24.9
2018-07-03T12:52:42.763Z,25
2018-07-03T12:54:05.167Z,25.2
2018-07-03T12:55:25.077Z,25.2
2018-07-03T12:56:44.905Z,25.3
2018-07-03T12:58:07.304Z,25.6
2018-07-03T12:59:29.645Z,25.5
2018-07-03T13:00:52.061Z,25.5
2018-07-03T13:02:11.925Z,25.6
2018-07-03T13:03:31.745Z,26
2018-07-03T13:04:51.609Z,25.6
2018-07-03T13:06:11.498Z,25.2
2018-07-03T13:07:38.937Z,26.3
2018-07-03T13:08:58.785Z,26.3
2018-07-03T13:10:21.145Z,25.5
2018-07-03T13:11:46.059Z,25.1
2018-07-03T13:13:05.933Z,25
2018-07-03T13:14:25.755Z,26.1
2018-07-03T13:15:45.576Z,26.1
2018-07-03T13:17:07.994Z,26.7
2018-07-03T13:18:30.351Z,26.1
2018-07-03T13:19:57.812Z,26.3
2018-07-03T13:21:20.275Z,26.7
2018-07-03T13:22:40.103Z,26.5
2018-07-03T13:23:59.924Z,26.4
2018-07-03T13:25:24.820Z,28.1
2018-07-03T13:26:54.826Z,28
2018-07-03T13:28:17.231Z,27.4
2018-07-03T13:29:37.055Z,25.4
2018-07-03T13:30:59.408Z,27.9
2018-07-03T13:32:26.881Z,26.6
2018-07-03T13:33:46.713Z,26.3
2018-07-03T13:35:06.596Z,27.6
2018-07-03T13:36:26.469Z,27.4
2018-07-03T13:37:46.351Z,27.3
2018-07-03T13:39:11.242Z,26.4
2018-07-03T13:40:31.057Z,25.5
2018-07-03T13:41:50.936Z,25.4
2018-07-03T13:43:10.758Z,26.8
2018-07-03T13:44:33.181Z,26
2018-07-03T13:45:53.032Z,25.1
2018-07-03T13:47:12.878Z,26.8
2018-07-03T13:48:37.780Z,26.1
2018-07-03T13:50:12.829Z,26.1
2018-07-03T13:51:32.662Z,25.5
2018-07-03T13:52:52.556Z,25.6
2018-07-03T13:54:17.485Z,25.7
2018-07-03T13:55:47.466Z,27.6
2018-07-03T13:57:07.292Z,26.7
2018-07-03T13:58:32.188Z,27.1
2018-07-03T13:59:54.597Z,27.2
2018-07-03T14:01:14.477Z,27.3
2018-07-03T14:02:34.355Z,27.3
2018-07-03T14:03:54.177Z,26.6
2018-07-03T14:05:14.029Z,26.4
2018-07-03T14:06:36.377Z,28
2018-07-03T14:08:01.260Z,25.7
2018-07-03T14:09:23.637Z,26
2018-07-03T14:10:43.487Z,25.8
2018-07-03T14:12:05.859Z,27.1
2018-07-03T14:13:30.739Z,28.3
2018-07-03T14:14:53.170Z,28
2018-07-03T14:16:13.068Z,27.3
2018-07-03T14:17:35.430Z,26.3
2018-07-03T14:18:57.833Z,26.3
2018-07-03T14:20:17.657Z,26.9
2018-07-03T14:21:37.539Z,27.2
2018-07-03T14:22:57.422Z,27.3
2018-07-03T14:24:24.841Z,27.3
2018-07-03T14:25:44.663Z,26.9
2018-07-03T14:27:12.083Z,26.9
2018-07-03T14:28:36.986Z,27.6
2018-07-03T14:30:09.479Z,28.3
2018-07-03T14:31:31.886Z,27.5
2018-07-03T14:32:51.703Z,28
2018-07-03T14:34:11.554Z,26.4
2018-07-03T14:35:31.380Z,26
2018-07-03T14:36:53.727Z,27.5
2018-07-03T14:38:13.578Z,27.3
2018-07-03T14:39:33.427Z,28.2
2018-07-03T14:40:55.784Z,26.3
2018-07-03T14:42:15.660Z,24.9
2018-07-03T14:43:40.542Z,27.6
2018-07-03T14:45:02.965Z,27.9
2018-07-03T14:46:27.879Z,28.4
2018-07-03T14:47:50.235Z,28.5
2018-07-03T14:49:12.607Z,28.5
2018-07-03T14:50:32.527Z,28.3
2018-07-03T14:51:52.375Z,28.1
2018-07-03T14:53:12.229Z,28
2018-07-03T14:54:34.634Z,28
2018-07-03T14:55:56.999Z,27.4
2018-07-03T14:57:16.825Z,27.3
2018-07-03T14:58:41.710Z,26.8
2018-07-03T15:00:01.526Z,25.5
2018-07-03T15:01:23.900Z,25.7
2018-07-03T15:02:43.751Z,24.8
2018-07-03T15:04:11.177Z,25.3
2018-07-03T15:05:31.002Z,25.4
2018-07-03T15:06:55.930Z,26.9
2018-07-03T15:08:15.797Z,24.5
2018-07-03T15:09:35.622Z,24.9
2018-07-03T15:11:00.498Z,24.6
2018-07-03T15:12:22.882Z,24.3
2018-07-03T15:13:45.228Z,23.5
2018-07-03T15:15:05.060Z,23.2
2018-07-03T15:16:24.932Z,22.6
2018-07-03T15:17:49.806Z,23
2018-07-03T15:19:12.163Z,24.5
2018-07-03T15:20:31.984Z,23.9
2018-07-03T15:22:04.455Z,25
2018-07-03T15:23:24.295Z,24.5
2018-07-03T15:24:44.178Z,24.5
2018-07-03T15:26:04.059Z,24.4
2018-07-03T15:27:23.954Z,24.3
2018-07-03T15:28:48.849Z,21.7
2018-07-03T15:30:08.667Z,22.1
2018-07-03T15:31:28.517Z,22.4
2018-07-03T15:33:01.001Z,21.8
2018-07-03T15:34:25.878Z,22.4
2018-07-03T15:35:53.333Z,22.6
2018-07-03T15:37:15.725Z,22.1
2018-07-03T15:38:40.658Z,22.6
2018-07-03T15:40:03.051Z,22.5
2018-07-03T15:41:22.906Z,22.6
2018-07-03T15:42:47.856Z,22.2
2018-07-03T15:44:07.704Z,22.2
2018-07-03T15:45:27.550Z,21.4
2018-07-03T15:46:47.429Z,21.2
2018-07-03T15:48:07.247Z,21.6
2018-07-03T15:49:29.682Z,21.4
2018-07-03T15:50:49.506Z,21.8
2018-07-03T15:52:11.918Z,21.6
2018-07-03T15:53:34.269Z,20.9
2018-07-03T15:54:54.088Z,21.3
2018-07-03T15:56:19.077Z,21.3
2018-07-03T15:57:41.485Z,21
2018-07-03T15:59:03.848Z,20.9
2018-07-03T16:00:26.261Z,21.1
2018-07-03T16:01:46.081Z,21.3
2018-07-03T16:03:05.966Z,21.2
2018-07-03T16:04:25.831Z,21.9
2018-07-03T16:05:50.735Z,22
2018-07-03T16:07:13.116Z,21.8
2018-07-03T16:08:35.506Z,21.8
2018-07-03T16:09:55.353Z,21.8
2018-07-03T16:11:20.242Z,21.7
2018-07-03T16:12:40.060Z,21.7
2018-07-03T16:14:02.440Z,21.9
2018-07-03T16:15:22.337Z,21.7
2018-07-03T16:16:42.154Z,21.7
2018-07-03T16:18:02.031Z,21.7
2018-07-03T16:19:21.878Z,21.5
2018-07-03T16:20:41.702Z,21.8
2018-07-03T16:22:01.580Z,21.7
2018-07-03T16:23:23.932Z,21.8
2018-07-03T16:24:48.832Z,21.8
2018-07-03T16:26:16.305Z,21.7
2018-07-03T16:27:38.650Z,21.8
2018-07-03T16:29:03.526Z,21.5
2018-07-03T16:30:23.411Z,21.8
2018-07-03T16:31:43.276Z,21.9
2018-07-03T16:33:10.754Z,22
2018-07-03T16:34:40.734Z,22
2018-07-03T16:36:03.115Z,22
2018-07-03T16:37:22.984Z,22.1
2018-07-03T16:38:45.430Z,22.1
2018-07-03T16:40:07.868Z,21.9
2018-07-03T16:41:32.775Z,22.2
2018-07-03T16:42:52.627Z,22.2
2018-07-03T16:44:14.992Z,22.3
2018-07-03T16:45:37.458Z,22.4
2018-07-03T16:47:07.497Z,22.4
2018-07-03T16:48:37.499Z,23.3
2018-07-03T16:49:57.387Z,21.3
2018-07-03T16:51:17.252Z,22.8
2018-07-03T16:52:37.087Z,22
2018-07-03T16:53:56.921Z,21.9
2018-07-03T16:55:16.805Z,21.6
2018-07-03T16:56:41.715Z,21.8
2018-07-03T16:58:04.070Z,23.9
2018-07-03T16:59:23.945Z,22.6
2018-07-03T17:00:43.809Z,22.5
2018-07-03T17:02:03.676Z,21.6
2018-07-03T17:03:26.060Z,21.2
2018-07-03T17:04:45.882Z,23
2018-07-03T17:06:05.739Z,23.3
2018-07-03T17:07:28.116Z,24.9
2018-07-03T17:08:53.026Z,25.3
2018-07-03T17:10:12.867Z,25.4
2018-07-03T17:11:35.228Z,25.5
2018-07-03T17:12:57.657Z,25.6
2018-07-03T17:14:17.510Z,25.5
2018-07-03T17:15:37.358Z,25.6
2018-07-03T17:16:59.717Z,25.5
2018-07-03T17:18:19.538Z,24.7
2018-07-03T17:19:41.939Z,25.5
2018-07-03T17:21:04.398Z,25.6
2018-07-03T17:22:24.260Z,25.6
2018-07-03T17:23:51.676Z,25.5
2018-07-03T17:25:11.498Z,25.5
2018-07-03T17:26:33.842Z,25.4
2018-07-03T17:27:53.670Z,24.3
2018-07-03T17:29:16.079Z,23.2
2018-07-03T17:30:40.953Z,23
2018-07-03T17:32:00.849Z,23.3
2018-07-03T17:33:20.671Z,24.1
2018-07-03T17:34:40.489Z,23.3
2018-07-03T17:36:02.864Z,24.1
2018-07-03T17:37:22.733Z,26.4
2018-07-03T17:38:47.641Z,25.8
2018-07-03T17:40:12.556Z,26.2
2018-07-03T17:41:37.466Z,26.4
2018-07-03T17:43:04.877Z,26.2
2018-07-03T17:44:32.318Z,26.3
2018-07-03T17:45:52.184Z,26.3
2018-07-03T17:47:12.073Z,26.2
2018-07-03T17:48:31.993Z,26.1
2018-07-03T17:49:56.943Z,25.8
2018-07-03T17:51:19.286Z,25.7
2018-07-03T17:52:39.175Z,25.7
2018-07-03T17:53:59.046Z,25.8
2018-07-03T17:55:21.449Z,25.7
2018-07-03T17:56:48.895Z,25.6
2018-07-03T17:58:11.255Z,25.6
2018-07-03T17:59:31.133Z,25.7
2018-07-03T18:00:50.965Z,25.6
2018-07-03T18:02:13.316Z,25.4
2018-07-03T18:03:33.165Z,25.4
2018-07-03T18:04:53.003Z,25.5
2018-07-03T18:06:12.842Z,25.5
2018-07-03T18:07:32.757Z,25.6
2018-07-03T18:08:55.132Z,25.4
2018-07-03T18:10:25.071Z,25.4
2018-07-03T18:11:44.893Z,24.9
2018-07-03T18:13:12.351Z,25.7
2018-07-03T18:14:32.201Z,25.6
2018-07-03T18:15:57.169Z,25.6
2018-07-03T18:17:17.028Z,25.5
2018-07-03T18:18:36.933Z,25.4
2018-07-03T18:19:59.340Z,25.4
2018-07-03T18:21:19.204Z,25.3